Terminal Aerodrome Forecast
Issued by NWS

Home | Current Version | Previous Version | Text Only | Print | Product List | Glossary On
Versions: 1 2 3 4 5 6 7 8 9 10 11 12 13 14
000
FTUS41 KCLE 301122
TAFFDY
TAF
KFDY 301122Z 3012/3112 04003KT 3SM BR OVC002
     FM301300 VRB03KT P6SM OVC007
     FM301400 VRB03KT P6SM VCTS SCT035CB BKN120
     FM310200 VRB03KT P6SM -TSRA BKN035CB
     FM310400 VRB03KT P6SM SCT250
      TEMPO 3104/3108 4SM BR
     FM310800 VRB02KT 1SM BR SCT250=

USA.gov is the U.S. government's official web portal to all federal, state and local government web resources and services.